createdAt,value
2022-12-01T00:00:59.443Z,4.47
2022-12-01T00:03:26.052Z,4.44
2022-12-01T00:06:04.474Z,4.41
2022-12-01T00:08:30.782Z,4.45
2022-12-01T00:11:07.062Z,4.39
2022-12-01T00:13:33.977Z,4.40
2022-12-01T00:16:14.123Z,4.34
2022-12-01T00:18:40.587Z,4.26
2022-12-01T00:21:13.661Z,4.29
2022-12-01T00:23:46.736Z,4.35
2022-12-01T00:26:13.101Z,4.11
2022-12-01T00:28:39.056Z,4.13
2022-12-01T00:31:11.985Z,4.17
2022-12-01T00:33:38.959Z,4.20
2022-12-01T00:36:05.386Z,4.24
2022-12-01T00:38:32.232Z,4.21
2022-12-01T00:40:57.985Z,4.18
2022-12-01T00:43:24.334Z,4.24
2022-12-01T00:45:50.992Z,4.11
2022-12-01T00:48:17.637Z,4.10
2022-12-01T00:50:43.951Z,4.14
2022-12-01T00:53:09.861Z,4.19
2022-12-01T00:55:35.697Z,4.15
2022-12-01T00:58:01.570Z,4.20
2022-12-01T01:00:27.432Z,4.25
2022-12-01T01:02:53.724Z,4.22
2022-12-01T01:05:19.902Z,4.19
2022-12-01T01:07:45.745Z,4.25
2022-12-01T01:10:11.696Z,4.19
2022-12-01T01:12:37.642Z,4.18
2022-12-01T01:15:05.352Z,4.21
2022-12-01T01:17:32.572Z,4.21
2022-12-01T01:19:58.381Z,4.18
2022-12-01T01:22:24.566Z,4.22
2022-12-01T01:24:50.392Z,4.28
2022-12-01T01:27:16.342Z,4.22
2022-12-01T01:29:42.176Z,4.24
2022-12-01T01:32:08.365Z,4.26
2022-12-01T01:34:34.277Z,4.32
2022-12-01T01:37:00.139Z,4.19
2022-12-01T01:39:26.338Z,4.27
2022-12-01T01:41:52.131Z,4.21
2022-12-01T01:44:49.473Z,4.15
2022-12-01T01:47:19.963Z,4.15
2022-12-01T01:49:46.397Z,4.13
2022-12-01T01:52:13.730Z,4.10
2022-12-01T01:54:45.406Z,4.14
2022-12-01T01:57:16.133Z,4.14
2022-12-01T01:59:50.642Z,4.20
2022-12-01T02:02:16.856Z,4.27
2022-12-01T02:04:49.463Z,4.10
2022-12-01T02:07:17.909Z,4.21
2022-12-01T02:09:44.248Z,4.11
2022-12-01T02:12:38.231Z,4.18
2022-12-01T02:15:41.355Z,4.20
2022-12-01T02:18:49.604Z,4.30
2022-12-01T02:21:21.175Z,4.31
2022-12-01T02:24:17.946Z,4.20
2022-12-01T02:27:06.250Z,4.24
2022-12-01T02:29:40.787Z,4.32
2022-12-01T02:32:35.265Z,4.25
2022-12-01T02:35:14.905Z,4.10
2022-12-01T02:38:06.046Z,4.17
2022-12-01T02:40:31.870Z,4.18
2022-12-01T02:43:06.962Z,4.23
2022-12-01T02:45:49.597Z,4.19
2022-12-01T02:48:26.040Z,4.24
2022-12-01T02:50:54.381Z,4.29
2022-12-01T02:53:21.344Z,4.32
2022-12-01T02:55:57.182Z,4.18
2022-12-01T02:58:23.048Z,4.11
2022-12-01T03:01:12.167Z,4.22
2022-12-01T03:04:14.956Z,4.22
2022-12-01T03:07:16.226Z,4.06
2022-12-01T03:09:54.255Z,4.10
2022-12-01T03:12:29.160Z,4.05
2022-12-01T03:15:18.378Z,4.10
2022-12-01T03:17:46.479Z,4.08
2022-12-01T03:20:21.254Z,3.98
2022-12-01T03:22:55.891Z,4.00
2022-12-01T03:25:25.720Z,3.99
2022-12-01T03:28:20.192Z,3.91
2022-12-01T03:30:44.930Z,3.96
2022-12-01T03:33:20.386Z,4.01
2022-12-01T03:36:14.331Z,4.00
2022-12-01T03:38:46.160Z,4.09
2022-12-01T03:41:17.482Z,4.09
2022-12-01T03:43:50.975Z,4.12
2022-12-01T03:46:19.629Z,4.15
2022-12-01T03:48:45.974Z,4.11
2022-12-01T03:51:24.943Z,3.99
2022-12-01T03:53:58.903Z,3.91
2022-12-01T03:56:29.969Z,3.95
2022-12-01T03:58:58.506Z,3.99
2022-12-01T04:01:25.980Z,4.08
2022-12-01T04:03:51.810Z,4.05
2022-12-01T04:06:17.619Z,4.03
2022-12-01T04:08:43.438Z,3.98
2022-12-01T04:11:32.497Z,4.08
2022-12-01T04:13:58.818Z,4.03
2022-12-01T04:16:24.969Z,4.09
2022-12-01T04:18:50.877Z,4.05
2022-12-01T04:21:16.724Z,4.06
2022-12-01T04:24:00.916Z,4.01
2022-12-01T04:26:28.728Z,3.96
2022-12-01T04:28:54.550Z,4.03
2022-12-01T04:31:20.829Z,3.97
2022-12-01T04:33:46.707Z,3.99
2022-12-01T04:36:12.558Z,3.99
2022-12-01T04:38:39.723Z,3.98
2022-12-01T04:41:12.840Z,3.91
2022-12-01T04:43:39.487Z,3.97
2022-12-01T04:46:06.510Z,3.94
2022-12-01T04:48:35.237Z,3.98
2022-12-01T04:51:02.675Z,3.88
2022-12-01T04:53:29.330Z,3.87
2022-12-01T04:55:56.518Z,3.96
2022-12-01T04:58:22.309Z,3.93
2022-12-01T05:00:48.251Z,3.90
2022-12-01T05:03:15.291Z,3.90
2022-12-01T05:05:41.566Z,3.98
2022-12-01T05:08:07.716Z,3.96
2022-12-01T05:10:37.870Z,3.88
2022-12-01T05:13:05.485Z,3.91
2022-12-01T05:15:31.464Z,3.75
2022-12-01T05:17:57.875Z,3.67
2022-12-01T05:20:43.803Z,3.63
2022-12-01T05:23:15.160Z,3.55
2022-12-01T05:25:42.544Z,3.66
2022-12-01T05:28:08.316Z,3.59
2022-12-01T05:30:34.108Z,3.63
2022-12-01T05:32:59.947Z,3.56
2022-12-01T05:35:26.757Z,3.56
2022-12-01T05:37:52.618Z,3.61
2022-12-01T05:40:18.681Z,3.49
2022-12-01T05:42:44.531Z,3.47
2022-12-01T05:45:10.486Z,3.61
2022-12-01T05:47:36.267Z,3.57
2022-12-01T05:50:05.805Z,3.62
2022-12-01T05:52:35.615Z,3.56
2022-12-01T05:55:05.447Z,3.54
2022-12-01T05:57:32.365Z,3.55
2022-12-01T05:59:58.348Z,3.49
2022-12-01T06:02:26.357Z,3.56
2022-12-01T06:04:52.929Z,3.71
2022-12-01T06:07:19.704Z,3.54
2022-12-01T06:09:45.836Z,3.32
2022-12-01T06:12:12.356Z,3.42
2022-12-01T06:14:38.344Z,3.42
2022-12-01T06:17:04.473Z,3.44
2022-12-01T06:19:30.878Z,3.54
2022-12-01T06:21:57.283Z,3.58
2022-12-01T06:24:23.256Z,3.56
2022-12-01T06:26:49.208Z,3.64
2022-12-01T06:29:15.320Z,3.46
2022-12-01T06:31:41.477Z,3.57
2022-12-01T06:34:07.860Z,3.53
2022-12-01T06:36:34.095Z,3.58
2022-12-01T06:38:59.914Z,3.59
2022-12-01T06:41:25.751Z,3.50
2022-12-01T06:43:51.642Z,3.47
2022-12-01T06:46:17.800Z,3.45
2022-12-01T06:48:44.239Z,3.36
2022-12-01T06:51:11.081Z,3.34
2022-12-01T06:53:37.042Z,3.47
2022-12-01T06:56:04.534Z,3.55
2022-12-01T06:58:31.547Z,3.49
2022-12-01T07:00:58.360Z,3.38
2022-12-01T07:03:24.445Z,3.45
2022-12-01T07:05:58.472Z,3.47
2022-12-01T07:08:25.615Z,3.42
2022-12-01T07:11:02.417Z,3.38
2022-12-01T07:13:33.039Z,3.47
2022-12-01T07:15:59.925Z,3.34
2022-12-01T07:18:25.660Z,3.39
2022-12-01T07:20:51.488Z,3.40
2022-12-01T07:23:17.310Z,3.46
2022-12-01T07:25:43.195Z,3.43
2022-12-01T07:28:09.088Z,3.45
2022-12-01T07:30:35.143Z,3.43
2022-12-01T07:33:01.269Z,3.38
2022-12-01T07:35:27.134Z,3.32
2022-12-01T07:37:56.174Z,3.28
2022-12-01T07:40:22.464Z,3.15
2022-12-01T07:42:48.596Z,3.24
2022-12-01T07:45:14.395Z,3.25
2022-12-01T07:47:40.636Z,3.17
2022-12-01T07:50:07.072Z,3.31
2022-12-01T07:52:32.868Z,3.27
2022-12-01T07:54:58.702Z,3.19
2022-12-01T07:57:24.558Z,3.19
2022-12-01T07:59:52.244Z,3.19
2022-12-01T08:02:18.170Z,3.31
2022-12-01T08:04:44.048Z,3.42
2022-12-01T08:07:09.833Z,3.19
2022-12-01T08:09:35.761Z,3.26
2022-12-01T08:12:01.588Z,3.20
2022-12-01T08:14:27.335Z,3.13
2022-12-01T08:16:53.213Z,3.45
2022-12-01T08:19:19.133Z,3.30
2022-12-01T08:21:44.969Z,3.26
2022-12-01T08:24:10.958Z,3.15
2022-12-01T08:26:36.923Z,3.17
2022-12-01T08:29:02.914Z,3.22
2022-12-01T08:31:32.341Z,3.22
2022-12-01T08:33:59.385Z,3.14
2022-12-01T08:36:25.295Z,3.17
2022-12-01T08:38:53.473Z,3.30
2022-12-01T08:41:20.546Z,3.27
2022-12-01T08:44:02.099Z,3.38
2022-12-01T08:46:32.747Z,3.26
2022-12-01T08:48:59.218Z,3.21
2022-12-01T08:51:26.178Z,3.29
2022-12-01T08:53:53.528Z,3.34
2022-12-01T08:56:22.437Z,3.38
2022-12-01T08:58:49.648Z,3.40
2022-12-01T09:01:16.426Z,3.42
2022-12-01T09:03:43.443Z,3.40
2022-12-01T09:06:13.548Z,3.22
2022-12-01T09:08:40.415Z,3.25
2022-12-01T09:11:15.244Z,3.22
2022-12-01T09:13:42.460Z,3.21
2022-12-01T09:16:12.409Z,3.21
2022-12-01T09:18:38.786Z,3.24
2022-12-01T09:21:12.993Z,3.31
2022-12-01T09:23:39.233Z,3.17
2022-12-01T09:26:10.844Z,3.19
2022-12-01T09:28:39.414Z,3.29
2022-12-01T09:31:08.043Z,3.34
2022-12-01T09:33:34.472Z,3.28
2022-12-01T09:36:02.084Z,3.39
2022-12-01T09:38:28.924Z,3.30
2022-12-01T09:40:56.009Z,3.40
2022-12-01T09:43:29.076Z,3.32
2022-12-01T09:46:02.202Z,3.45
2022-12-01T09:48:42.021Z,3.44
2022-12-01T09:51:16.419Z,3.53
2022-12-01T09:53:43.979Z,3.46
2022-12-01T09:56:41.728Z,3.38
2022-12-01T09:59:17.146Z,3.35
2022-12-01T10:01:45.878Z,3.47
2022-12-01T10:04:30.693Z,3.35
2022-12-01T10:07:03.038Z,3.31
2022-12-01T10:09:52.786Z,3.52
2022-12-01T10:12:23.032Z,3.52
2022-12-01T10:14:50.012Z,3.50
2022-12-01T10:17:34.507Z,3.31
2022-12-01T10:20:09.245Z,3.37
2022-12-01T10:22:53.716Z,3.40
2022-12-01T10:25:25.818Z,3.46
2022-12-01T10:28:11.828Z,3.59
2022-12-01T10:30:46.949Z,3.49
2022-12-01T10:33:24.030Z,3.33
2022-12-01T10:35:50.106Z,3.39
2022-12-01T10:38:26.640Z,3.45
2022-12-01T10:41:00.302Z,3.38
2022-12-01T10:43:38.569Z,3.48
2022-12-01T10:46:25.163Z,3.49
2022-12-01T10:48:56.391Z,3.48
2022-12-01T10:51:23.690Z,3.65
2022-12-01T10:53:50.047Z,3.62
2022-12-01T10:56:19.227Z,3.60
2022-12-01T10:58:49.556Z,3.64
2022-12-01T11:01:24.142Z,3.70
2022-12-01T11:04:22.430Z,3.63
2022-12-01T11:06:49.630Z,3.59
2022-12-01T11:09:26.036Z,3.45
2022-12-01T11:11:57.987Z,3.48
2022-12-01T11:14:43.097Z,3.53
2022-12-01T11:17:16.507Z,3.49
2022-12-01T11:19:43.150Z,3.48
2022-12-01T11:22:22.638Z,3.50
2022-12-01T11:24:54.623Z,3.52
2022-12-01T11:27:23.563Z,3.67
2022-12-01T11:29:52.507Z,3.60
2022-12-01T11:32:30.643Z,3.63
2022-12-01T11:35:00.323Z,3.76
2022-12-01T11:37:38.399Z,3.82
2022-12-01T11:40:24.894Z,3.85
2022-12-01T11:42:54.014Z,3.88
2022-12-01T11:45:27.885Z,3.91
2022-12-01T11:48:14.852Z,3.83
2022-12-01T11:50:42.172Z,3.59
2022-12-01T11:53:33.173Z,3.56
2022-12-01T11:56:15.892Z,3.51
2022-12-01T11:58:43.786Z,3.53
2022-12-01T12:01:24.592Z,3.72
2022-12-01T12:04:13.804Z,3.58
2022-12-01T12:07:24.369Z,3.58
2022-12-01T12:10:08.367Z,3.54
2022-12-01T12:13:15.057Z,3.66
2022-12-01T12:16:04.391Z,3.69
2022-12-01T12:18:43.672Z,3.76
2022-12-01T12:21:40.859Z,3.74
2022-12-01T12:24:31.819Z,3.55
2022-12-01T12:27:03.567Z,3.49
2022-12-01T12:29:49.811Z,3.68
2022-12-01T12:32:21.607Z,3.52
2022-12-01T12:34:54.124Z,3.65
2022-12-01T12:37:32.676Z,3.71
2022-12-01T12:40:23.370Z,3.65
2022-12-01T12:43:26.155Z,3.60
2022-12-01T12:46:12.306Z,3.63
2022-12-01T12:49:18.031Z,3.62
2022-12-01T12:51:48.619Z,3.76
2022-12-01T12:54:26.149Z,3.86
2022-12-01T12:57:01.504Z,3.82
2022-12-01T12:59:40.146Z,3.85
2022-12-01T13:02:15.030Z,3.92
2022-12-01T13:05:04.516Z,3.63
2022-12-01T13:07:57.843Z,3.67
2022-12-01T13:10:39.016Z,3.75
2022-12-01T13:13:51.121Z,3.66
2022-12-01T13:16:26.406Z,3.65
2022-12-01T13:19:03.513Z,3.43
2022-12-01T13:21:36.593Z,3.47
2022-12-01T13:24:04.486Z,3.54
2022-12-01T13:26:34.138Z,3.56
2022-12-01T13:29:05.685Z,3.67
2022-12-01T13:31:43.150Z,3.59
2022-12-01T13:34:38.328Z,3.50
2022-12-01T13:37:04.759Z,3.41
2022-12-01T13:39:37.308Z,3.44
2022-12-01T13:42:20.767Z,3.43
2022-12-01T13:44:54.292Z,3.41
2022-12-01T13:47:20.159Z,3.43
2022-12-01T13:49:48.678Z,3.45
2022-12-01T13:52:17.880Z,3.52
2022-12-01T13:55:00.731Z,3.56
2022-12-01T13:57:28.739Z,3.54
2022-12-01T13:59:57.523Z,3.49
2022-12-01T14:02:24.932Z,3.55
2022-12-01T14:04:51.511Z,3.41
2022-12-01T14:07:27.131Z,3.40
2022-12-01T14:09:55.826Z,3.36
2022-12-01T14:12:28.537Z,3.34
2022-12-01T14:15:01.383Z,3.43
2022-12-01T14:17:30.929Z,3.46
2022-12-01T14:20:12.253Z,3.40
2022-12-01T14:22:43.213Z,3.31
2022-12-01T14:25:21.776Z,3.39
2022-12-01T14:27:57.146Z,3.07
2022-12-01T14:30:41.323Z,3.15
2022-12-01T14:33:44.578Z,3.07
2022-12-01T14:36:22.345Z,3.09
2022-12-01T14:38:51.835Z,3.12
2022-12-01T14:41:40.598Z,2.98
2022-12-01T14:44:26.597Z,2.99
2022-12-01T14:46:55.042Z,3.04
2022-12-01T14:49:24.882Z,2.88
2022-12-01T14:51:55.907Z,2.95
2022-12-01T14:54:29.423Z,2.90
2022-12-01T14:57:04.338Z,2.92
2022-12-01T14:59:32.391Z,2.76
2022-12-01T15:02:08.369Z,2.80
2022-12-01T15:04:55.207Z,2.80
2022-12-01T15:07:22.352Z,2.75
2022-12-01T15:09:59.575Z,2.85
2022-12-01T15:12:27.396Z,2.75
2022-12-01T15:14:53.620Z,2.80
2022-12-01T15:17:31.684Z,2.80
2022-12-01T15:19:58.392Z,2.72
2022-12-01T15:22:29.843Z,2.74
2022-12-01T15:25:19.936Z,2.78
2022-12-01T15:27:45.908Z,2.63
2022-12-01T15:30:13.812Z,2.54
2022-12-01T15:32:45.197Z,2.68
2022-12-01T15:35:19.502Z,2.61
2022-12-01T15:37:47.058Z,2.69
2022-12-01T15:43:15.995Z,2.69
2022-12-01T15:45:50.184Z,2.53
2022-12-01T15:48:24.088Z,2.43
2022-12-01T15:51:11.357Z,2.41
2022-12-01T15:53:45.126Z,2.53
2022-12-01T15:56:11.703Z,2.54
2022-12-01T15:58:46.736Z,2.56
2022-12-01T16:01:16.789Z,2.50
2022-12-01T16:03:45.555Z,2.49
2022-12-01T16:06:12.159Z,2.48
2022-12-01T16:08:38.286Z,2.41
2022-12-01T16:11:18.174Z,2.44
2022-12-01T16:13:59.736Z,2.45
2022-12-01T16:16:38.115Z,2.36
2022-12-01T16:19:07.000Z,2.41
2022-12-01T16:21:42.078Z,2.40
2022-12-01T16:24:33.249Z,2.42
2022-12-01T16:27:05.964Z,2.44
2022-12-01T16:30:07.670Z,2.51
2022-12-01T16:32:37.624Z,2.50
2022-12-01T16:35:05.625Z,2.48
2022-12-01T16:37:31.647Z,2.61
2022-12-01T16:39:58.025Z,2.44
2022-12-01T16:42:24.240Z,2.49
2022-12-01T16:44:51.050Z,2.38
2022-12-01T16:47:18.429Z,2.36
2022-12-01T16:49:44.345Z,2.41
2022-12-01T16:54:56.505Z,2.45
2022-12-01T16:57:22.423Z,2.26
2022-12-01T16:59:48.399Z,2.44
2022-12-01T17:02:14.379Z,2.42
2022-12-01T17:04:40.409Z,2.33
2022-12-01T17:07:06.242Z,2.20
2022-12-01T17:09:32.120Z,2.13
2022-12-01T17:11:58.557Z,2.17
2022-12-01T17:14:24.772Z,2.30
2022-12-01T17:16:50.828Z,2.29
2022-12-01T17:19:17.231Z,2.26
2022-12-01T17:21:43.049Z,2.22
2022-12-01T17:24:09.507Z,2.24
2022-12-01T17:26:35.606Z,2.40
2022-12-01T17:29:01.978Z,2.22
2022-12-01T17:31:28.090Z,2.21
2022-12-01T17:33:54.261Z,2.17
2022-12-01T17:36:20.188Z,2.10
2022-12-01T17:38:46.497Z,2.06
2022-12-01T17:41:15.533Z,2.10
2022-12-01T17:43:41.972Z,2.12
2022-12-01T17:46:09.890Z,2.14
2022-12-01T17:48:37.826Z,2.17
2022-12-01T17:51:05.437Z,2.09
2022-12-01T17:53:32.618Z,2.01
2022-12-01T17:55:58.729Z,2.01
2022-12-01T17:58:24.697Z,2.14
2022-12-01T18:00:52.811Z,2.24
2022-12-01T18:03:19.300Z,2.29
2022-12-01T18:06:00.030Z,2.35
2022-12-01T18:08:28.155Z,2.33
2022-12-01T18:10:54.672Z,2.23
2022-12-01T18:13:21.828Z,2.21
2022-12-01T18:15:48.928Z,2.22
2022-12-01T18:18:15.060Z,2.13
2022-12-01T18:20:42.338Z,2.15
2022-12-01T18:23:09.379Z,2.22
2022-12-01T18:25:36.693Z,2.19
2022-12-01T18:28:03.695Z,2.14
2022-12-01T18:30:30.239Z,2.09
2022-12-01T18:32:57.711Z,2.24
2022-12-01T18:35:27.420Z,2.22
2022-12-01T18:37:56.400Z,2.29
2022-12-01T18:40:23.585Z,2.20
2022-12-01T18:42:50.031Z,2.20
2022-12-01T18:45:20.847Z,2.06
2022-12-01T18:47:47.386Z,2.00
2022-12-01T18:50:13.402Z,2.00
2022-12-01T18:52:39.872Z,2.02
2022-12-01T18:55:06.568Z,1.99
2022-12-01T18:57:32.608Z,2.05
2022-12-01T18:59:58.503Z,2.15
2022-12-01T19:02:24.552Z,1.89
2022-12-01T19:04:51.526Z,2.01
2022-12-01T19:07:17.575Z,1.94
2022-12-01T19:09:43.462Z,1.89
2022-12-01T19:12:09.408Z,2.02
2022-12-01T19:14:35.267Z,1.94
2022-12-01T19:17:01.433Z,2.09
2022-12-01T19:19:27.341Z,1.86
2022-12-01T19:21:53.458Z,1.92
2022-12-01T19:24:19.482Z,1.96
2022-12-01T19:26:45.314Z,2.08
2022-12-01T19:29:11.420Z,1.91
2022-12-01T19:31:37.605Z,1.87
2022-12-01T19:34:03.922Z,1.92
2022-12-01T19:36:30.449Z,1.86
2022-12-01T19:38:57.837Z,2.08
2022-12-01T19:41:24.710Z,2.03
2022-12-01T19:43:52.377Z,2.00
2022-12-01T19:46:22.069Z,1.97
2022-12-01T19:48:53.833Z,1.92
2022-12-01T19:51:24.877Z,1.91
2022-12-01T19:53:52.392Z,2.01
2022-12-01T19:56:18.359Z,1.93
2022-12-01T19:58:44.683Z,1.94
2022-12-01T20:01:13.271Z,1.93
2022-12-01T20:03:40.020Z,1.94
2022-12-01T20:06:09.687Z,1.82
2022-12-01T20:08:36.283Z,1.75
2022-12-01T20:11:03.995Z,1.80
2022-12-01T20:13:31.942Z,1.90
2022-12-01T20:16:12.752Z,1.76
2022-12-01T20:18:39.969Z,1.66
2022-12-01T20:21:18.383Z,1.72
2022-12-01T20:23:57.008Z,1.66
2022-12-01T20:26:30.187Z,1.58
2022-12-01T20:29:00.284Z,1.62
2022-12-01T20:31:28.360Z,1.75
2022-12-01T20:33:56.637Z,1.72
2022-12-01T20:36:23.309Z,1.54
2022-12-01T20:38:49.388Z,1.56
2022-12-01T20:41:16.274Z,1.49
2022-12-01T20:43:42.189Z,1.38
2022-12-01T20:46:08.720Z,1.36
2022-12-01T20:48:34.765Z,1.30
2022-12-01T20:51:03.021Z,1.47
2022-12-01T20:53:29.572Z,1.43
2022-12-01T20:55:55.676Z,1.37
2022-12-01T20:58:21.927Z,1.36
2022-12-01T21:00:48.091Z,1.30
2022-12-01T21:03:14.422Z,1.25
2022-12-01T21:05:42.915Z,1.23
2022-12-01T21:08:12.197Z,1.19
2022-12-01T21:10:40.119Z,1.16
2022-12-01T21:13:38.855Z,1.19
2022-12-01T21:16:14.048Z,1.15
2022-12-01T21:18:54.578Z,1.23
2022-12-01T21:21:26.946Z,1.20
2022-12-01T21:24:07.751Z,1.25
2022-12-01T21:26:36.413Z,1.28
2022-12-01T21:29:28.199Z,1.41
2022-12-01T21:32:04.574Z,1.21
2022-12-01T21:34:34.931Z,1.31
2022-12-01T21:37:05.985Z,1.25
2022-12-01T21:39:33.985Z,1.37
2022-12-01T21:42:13.237Z,1.25
2022-12-01T21:44:39.432Z,1.26
2022-12-01T21:47:21.293Z,1.39
2022-12-01T21:49:56.315Z,1.40
2022-12-01T21:52:29.216Z,1.41
2022-12-01T21:55:21.482Z,1.38
2022-12-01T21:57:49.845Z,1.23
2022-12-01T22:00:30.947Z,1.21
2022-12-01T22:03:08.981Z,1.24
2022-12-01T22:05:40.735Z,1.37
2022-12-01T22:08:06.957Z,1.42
2022-12-01T22:10:55.421Z,1.29
2022-12-01T22:13:26.815Z,1.34
2022-12-01T22:15:54.485Z,1.26
2022-12-01T22:18:28.870Z,1.38
2022-12-01T22:20:55.615Z,1.34
2022-12-01T22:23:28.749Z,1.22
2022-12-01T22:25:54.751Z,1.27
2022-12-01T22:28:24.228Z,1.37
2022-12-01T22:30:51.482Z,1.37
2022-12-01T22:33:23.802Z,1.37
2022-12-01T22:35:52.097Z,1.35
2022-12-01T22:38:28.189Z,1.44
2022-12-01T22:41:02.677Z,1.51
2022-12-01T22:43:41.113Z,1.56
2022-12-01T22:46:23.783Z,1.48
2022-12-01T22:49:20.324Z,1.47
2022-12-01T22:51:50.694Z,1.46
2022-12-01T22:54:16.525Z,1.51
2022-12-01T22:57:09.174Z,1.49
2022-12-01T22:59:37.387Z,1.52
2022-12-01T23:02:21.324Z,1.45
2022-12-01T23:04:51.412Z,1.38
2022-12-01T23:07:34.843Z,1.49
2022-12-01T23:10:08.653Z,1.46
2022-12-01T23:12:35.684Z,1.28
2022-12-01T23:15:20.719Z,1.38
2022-12-01T23:17:46.874Z,1.33
2022-12-01T23:20:27.409Z,1.43
2022-12-01T23:22:55.119Z,1.47
2022-12-01T23:25:22.863Z,1.49
2022-12-01T23:27:51.459Z,1.49
2022-12-01T23:30:20.453Z,1.40
2022-12-01T23:32:56.115Z,1.40
2022-12-01T23:35:22.333Z,1.30
2022-12-01T23:37:48.464Z,1.53
2022-12-01T23:40:18.044Z,1.34
2022-12-01T23:42:44.016Z,1.28
2022-12-01T23:45:22.572Z,1.36
2022-12-01T23:47:49.380Z,1.27
2022-12-01T23:50:19.683Z,1.27
2022-12-01T23:52:45.651Z,1.26
2022-12-01T23:55:19.821Z,1.51
2022-12-01T23:57:45.678Z,1.47
